createdAt,value
2023-04-16T00:00:29.548Z,7.00
2023-04-16T00:02:56.673Z,7.00
2023-04-16T00:05:23.863Z,7.10
2023-04-16T00:07:51.714Z,7.10
2023-04-16T00:10:18.907Z,7.10
2023-04-16T00:12:45.965Z,7.10
2023-04-16T00:15:12.897Z,7.20
2023-04-16T00:18:30.967Z,7.20
2023-04-16T00:20:57.947Z,7.10
2023-04-16T00:23:25.434Z,7.20
2023-04-16T00:25:53.838Z,7.20
2023-04-16T00:28:21.167Z,7.30
2023-04-16T00:30:48.200Z,7.30
2023-04-16T00:33:15.867Z,7.30
2023-04-16T00:35:45.100Z,7.30
2023-04-16T00:38:12.141Z,7.30
2023-04-16T00:40:39.197Z,7.20
2023-04-16T00:43:06.260Z,7.20
2023-04-16T00:45:33.292Z,7.20
2023-04-16T00:48:01.334Z,7.20
2023-04-16T00:50:28.486Z,7.30
2023-04-16T00:52:56.703Z,7.20
2023-04-16T00:55:23.850Z,7.20
2023-04-16T00:57:50.841Z,7.20
2023-04-16T01:00:17.885Z,7.10
2023-04-16T01:02:45.085Z,7.10
2023-04-16T01:05:12.255Z,7.10
2023-04-16T01:07:39.253Z,7.10
2023-04-16T01:10:06.797Z,7.10
2023-04-16T01:12:33.887Z,7.10
2023-04-16T01:15:01.144Z,7.00
2023-04-16T01:17:28.196Z,7.00
2023-04-16T01:19:59.753Z,7.10
2023-04-16T01:22:28.503Z,7.10
2023-04-16T01:24:55.525Z,7.10
2023-04-16T01:27:23.723Z,7.10
2023-04-16T01:29:50.966Z,7.00
2023-04-16T01:32:23.121Z,7.00
2023-04-16T01:34:50.183Z,6.90
2023-04-16T01:37:17.746Z,7.00
2023-04-16T01:39:46.339Z,7.00
2023-04-16T01:42:13.284Z,7.00
2023-04-16T01:44:40.262Z,7.00
2023-04-16T01:47:08.219Z,6.90
2023-04-16T01:53:23.692Z,6.90
2023-04-16T01:55:50.658Z,6.90
2023-04-16T01:58:17.815Z,6.90
2023-04-16T02:00:44.903Z,6.90
2023-04-16T02:03:12.030Z,6.90
2023-04-16T02:05:44.254Z,6.80
2023-04-16T02:08:11.325Z,6.90
2023-04-16T02:10:38.444Z,6.80
2023-04-16T02:13:05.787Z,6.80
2023-04-16T02:15:32.844Z,6.80
2023-04-16T02:18:00.526Z,6.80
2023-04-16T02:20:27.615Z,6.90
2023-04-16T02:22:58.963Z,6.90
2023-04-16T02:25:26.657Z,7.00
2023-04-16T02:27:55.748Z,7.00
2023-04-16T02:30:37.493Z,7.10
2023-04-16T02:33:05.842Z,7.10
2023-04-16T02:35:37.624Z,7.10
2023-04-16T02:38:06.235Z,7.20
2023-04-16T02:40:35.486Z,7.10
2023-04-16T02:43:02.521Z,7.00
2023-04-16T02:45:31.632Z,7.00
2023-04-16T02:47:59.137Z,7.00
2023-04-16T02:50:26.197Z,7.00
2023-04-16T02:52:53.287Z,7.00
2023-04-16T02:55:20.411Z,7.00
2023-04-16T02:57:47.410Z,7.00
2023-04-16T03:00:14.674Z,7.00
2023-04-16T03:02:42.642Z,7.00
2023-04-16T03:05:10.047Z,6.90
2023-04-16T03:07:39.227Z,6.90
2023-04-16T03:10:07.497Z,6.80
2023-04-16T03:12:34.592Z,6.90
2023-04-16T03:15:01.658Z,6.80
2023-04-16T03:17:28.653Z,6.80
2023-04-16T03:19:55.914Z,6.70
2023-04-16T03:22:23.082Z,6.80
2023-04-16T03:24:50.145Z,6.90
2023-04-16T03:27:17.411Z,6.90
2023-04-16T03:29:46.033Z,6.90
2023-04-16T03:32:13.235Z,6.90
2023-04-16T03:34:40.907Z,6.90
2023-04-16T03:37:10.070Z,6.90
2023-04-16T03:39:37.330Z,6.90
2023-04-16T03:42:04.307Z,6.90
2023-04-16T03:44:31.403Z,6.80
2023-04-16T03:46:58.417Z,6.80
2023-04-16T03:49:25.496Z,6.80
2023-04-16T03:51:52.706Z,6.90
2023-04-16T03:54:22.028Z,6.90
2023-04-16T03:56:54.642Z,6.90
2023-04-16T03:59:21.642Z,6.90
2023-04-16T04:01:48.693Z,7.00
2023-04-16T04:04:15.956Z,6.90
2023-04-16T04:06:45.046Z,6.90
2023-04-16T04:09:12.218Z,6.90
2023-04-16T04:11:39.254Z,6.90
2023-04-16T04:14:06.350Z,6.90
2023-04-16T04:16:34.777Z,6.90
2023-04-16T04:19:01.920Z,6.90
2023-04-16T04:21:29.575Z,6.90
2023-04-16T04:23:56.742Z,6.90
2023-04-16T04:26:24.009Z,6.90
2023-04-16T04:28:51.133Z,6.90
2023-04-16T04:31:18.930Z,6.90
2023-04-16T04:33:46.060Z,6.90
2023-04-16T04:36:12.997Z,6.80
2023-04-16T04:38:40.035Z,6.80
2023-04-16T04:41:07.095Z,6.80
2023-04-16T04:43:36.868Z,6.80
2023-04-16T04:46:28.537Z,6.80
2023-04-16T04:48:55.885Z,6.80
2023-04-16T04:51:22.958Z,6.80
2023-04-16T04:53:49.975Z,6.90
2023-04-16T04:56:16.926Z,6.90
2023-04-16T04:58:44.314Z,6.90
2023-04-16T05:01:11.329Z,6.90
2023-04-16T05:03:38.527Z,6.90
2023-04-16T05:06:06.921Z,6.90
2023-04-16T05:08:33.975Z,6.80
2023-04-16T05:11:00.970Z,6.80
2023-04-16T05:13:27.924Z,6.80
2023-04-16T05:15:54.895Z,6.80
2023-04-16T05:18:21.890Z,6.80
2023-04-16T05:20:48.951Z,6.90
2023-04-16T05:23:15.926Z,6.90
2023-04-16T05:25:42.868Z,6.90
2023-04-16T05:28:11.136Z,6.90
2023-04-16T05:30:38.218Z,6.90
2023-04-16T05:33:05.238Z,6.80
2023-04-16T05:35:32.230Z,6.80
2023-04-16T05:37:59.211Z,6.80
2023-04-16T05:40:26.386Z,6.80
2023-04-16T05:42:53.383Z,6.80
2023-04-16T05:45:20.619Z,6.90
2023-04-16T05:48:14.129Z,6.90
2023-04-16T05:50:41.101Z,6.90
2023-04-16T05:53:09.482Z,6.90
2023-04-16T05:55:39.314Z,6.90
2023-04-16T05:58:06.165Z,6.90
2023-04-16T06:00:33.496Z,6.90
2023-04-16T06:03:01.130Z,6.90
2023-04-16T06:05:29.051Z,6.90
2023-04-16T06:07:56.745Z,6.90
2023-04-16T06:10:23.837Z,6.90
2023-04-16T06:12:50.765Z,6.90
2023-04-16T06:15:17.880Z,6.90
2023-04-16T06:17:44.888Z,6.90
2023-04-16T06:20:12.648Z,6.90
2023-04-16T06:22:39.648Z,6.90
2023-04-16T06:25:07.080Z,7.00
2023-04-16T06:27:34.098Z,7.00
2023-04-16T06:30:01.089Z,7.00
2023-04-16T06:32:28.137Z,7.00
2023-04-16T06:34:56.401Z,7.00
2023-04-16T06:37:23.345Z,7.00
2023-04-16T06:39:50.337Z,7.00
2023-04-16T06:42:17.910Z,7.00
2023-04-16T06:44:44.984Z,7.00
2023-04-16T06:47:12.439Z,7.00
2023-04-16T06:49:40.436Z,7.10
2023-04-16T06:52:07.429Z,7.10
2023-04-16T06:54:34.506Z,7.10
2023-04-16T06:57:01.463Z,7.10
2023-04-16T06:59:28.446Z,7.10
2023-04-16T07:01:55.554Z,7.10
2023-04-16T07:04:23.324Z,7.10
2023-04-16T07:06:50.305Z,7.20
2023-04-16T07:09:18.117Z,7.10
2023-04-16T07:11:45.159Z,7.10
2023-04-16T07:14:12.322Z,7.10
2023-04-16T07:16:39.325Z,7.10
2023-04-16T07:19:07.576Z,7.10
2023-04-16T07:21:34.710Z,7.10
2023-04-16T07:24:01.783Z,7.10
2023-04-16T07:26:28.741Z,7.00
2023-04-16T07:28:55.737Z,7.10
2023-04-16T07:31:22.778Z,7.00
2023-04-16T07:33:49.780Z,7.00
2023-04-16T07:36:16.716Z,7.00
2023-04-16T07:38:43.768Z,7.10
2023-04-16T07:41:10.820Z,7.20
2023-04-16T07:43:37.818Z,7.20
2023-04-16T07:46:04.788Z,7.20
2023-04-16T07:48:31.815Z,7.20
2023-04-16T07:50:58.930Z,7.10
2023-04-16T07:53:26.103Z,7.10
2023-04-16T07:55:53.037Z,7.20
2023-04-16T07:58:20.006Z,7.30
2023-04-16T08:00:48.119Z,7.30
2023-04-16T08:03:16.617Z,7.30
2023-04-16T08:05:43.709Z,7.30
2023-04-16T08:08:10.868Z,7.30
2023-04-16T08:10:38.568Z,7.20
2023-04-16T08:13:05.720Z,7.20
2023-04-16T08:15:32.811Z,7.20
2023-04-16T08:17:59.873Z,7.30
2023-04-16T08:20:27.056Z,7.40
2023-04-16T08:22:54.963Z,7.40
2023-04-16T08:25:23.811Z,7.40
2023-04-16T08:27:51.211Z,7.50
2023-04-16T08:30:18.248Z,7.60
2023-04-16T08:32:47.970Z,7.60
2023-04-16T08:35:16.527Z,7.70
2023-04-16T08:37:43.434Z,7.70
2023-04-16T08:40:10.830Z,7.80
2023-04-16T08:42:53.135Z,7.70
2023-04-16T08:45:20.285Z,7.70
2023-04-16T08:47:52.145Z,7.80
2023-04-16T08:50:24.383Z,7.70
2023-04-16T08:52:59.692Z,7.70
2023-04-16T08:55:38.277Z,7.70
2023-04-16T08:58:22.881Z,7.70
2023-04-16T09:00:49.938Z,7.70
2023-04-16T09:03:17.454Z,7.60
2023-04-16T09:05:44.798Z,7.60
2023-04-16T09:08:12.596Z,7.60
2023-04-16T09:10:39.691Z,7.60
2023-04-16T09:13:08.427Z,7.50
2023-04-16T09:15:36.352Z,7.50
2023-04-16T09:18:03.510Z,7.50
2023-04-16T09:20:30.494Z,7.50
2023-04-16T09:22:57.539Z,7.50
2023-04-16T09:25:26.007Z,7.50
2023-04-16T09:27:52.973Z,7.60
2023-04-16T09:30:23.871Z,7.60
2023-04-16T09:32:52.483Z,7.70
2023-04-16T09:35:21.297Z,7.70
2023-04-16T09:37:58.068Z,7.80
2023-04-16T09:40:27.325Z,7.90
2023-04-16T09:42:58.215Z,8.00
2023-04-16T09:45:25.388Z,8.00
2023-04-16T09:47:52.407Z,8.00
2023-04-16T09:50:20.418Z,7.90
2023-04-16T09:52:51.519Z,7.90
2023-04-16T09:55:23.765Z,7.90
2023-04-16T09:57:59.137Z,7.90
2023-04-16T10:00:26.222Z,7.90
2023-04-16T10:03:04.868Z,8.00
2023-04-16T10:05:32.867Z,8.00
2023-04-16T10:08:03.195Z,8.00
2023-04-16T10:10:30.673Z,8.00
2023-04-16T10:13:36.070Z,8.10
2023-04-16T10:16:04.027Z,8.10
2023-04-16T10:18:31.594Z,8.10
2023-04-16T10:20:59.010Z,8.00
2023-04-16T10:23:27.257Z,8.00
2023-04-16T10:25:57.470Z,8.10
2023-04-16T10:28:25.201Z,8.10
2023-04-16T10:30:53.740Z,8.20
2023-04-16T10:33:26.778Z,8.10
2023-04-16T10:36:15.038Z,8.10
2023-04-16T10:38:49.893Z,8.00
2023-04-16T10:41:17.193Z,7.90
2023-04-16T10:43:46.966Z,7.90
2023-04-16T10:46:20.645Z,7.80
2023-04-16T10:48:50.655Z,7.90
2023-04-16T10:51:26.437Z,7.80
2023-04-16T10:53:55.768Z,7.80
2023-04-16T10:56:27.674Z,7.80
2023-04-16T10:58:56.341Z,7.80
2023-04-16T11:01:35.504Z,7.70
2023-04-16T11:04:25.493Z,7.60
2023-04-16T11:07:04.696Z,7.70
2023-04-16T11:13:25.134Z,7.60
2023-04-16T11:15:52.170Z,7.60
2023-04-16T11:18:20.124Z,7.70
2023-04-16T11:20:47.308Z,7.70
2023-04-16T11:23:14.445Z,7.80
2023-04-16T11:25:41.392Z,7.80
2023-04-16T11:28:08.367Z,7.70
2023-04-16T11:30:37.066Z,7.70
2023-04-16T11:33:11.522Z,7.80
2023-04-16T11:35:39.750Z,7.80
2023-04-16T11:38:07.537Z,7.80
2023-04-16T11:40:35.986Z,7.90
2023-04-16T11:43:15.530Z,7.90
2023-04-16T11:46:07.924Z,7.80
2023-04-16T11:48:53.191Z,7.80
2023-04-16T11:51:20.759Z,7.80
2023-04-16T11:54:40.629Z,7.70
2023-04-16T11:57:58.690Z,7.80
2023-04-16T12:00:53.538Z,7.90
2023-04-16T12:03:38.502Z,8.00
2023-04-16T12:06:09.825Z,8.10
2023-04-16T12:08:37.016Z,8.20
2023-04-16T12:11:04.148Z,8.20
2023-04-16T12:13:40.196Z,8.30
2023-04-16T12:16:19.508Z,8.30
2023-04-16T12:19:01.335Z,8.30
2023-04-16T12:21:49.046Z,8.30
2023-04-16T12:24:21.014Z,8.30
2023-04-16T12:26:51.789Z,8.20
2023-04-16T12:29:24.262Z,8.30
2023-04-16T12:31:53.012Z,8.30
2023-04-16T12:34:21.457Z,8.40
2023-04-16T12:37:11.059Z,8.40
2023-04-16T12:39:43.330Z,8.50
2023-04-16T12:42:11.517Z,8.50
2023-04-16T12:44:38.639Z,8.50
2023-04-16T12:47:06.789Z,8.50
2023-04-16T12:49:33.761Z,8.50
2023-04-16T12:52:00.935Z,8.60
2023-04-16T12:54:29.905Z,8.70
2023-04-16T12:56:57.472Z,8.70
2023-04-16T12:59:28.680Z,8.70
2023-04-16T13:01:55.685Z,8.80
2023-04-16T13:04:25.499Z,8.80
2023-04-16T13:06:52.860Z,8.70
2023-04-16T13:09:20.311Z,8.70
2023-04-16T13:11:47.354Z,8.70
2023-04-16T13:14:14.407Z,8.70
2023-04-16T13:16:41.371Z,8.60
2023-04-16T13:19:08.778Z,8.60
2023-04-16T13:21:36.062Z,8.60
2023-04-16T13:24:03.086Z,8.60
2023-04-16T13:26:30.026Z,8.60
2023-04-16T13:28:57.010Z,8.70
2023-04-16T13:31:24.508Z,8.70
2023-04-16T13:33:51.559Z,8.80
2023-04-16T13:36:18.585Z,8.90
2023-04-16T13:38:45.898Z,9.00
2023-04-16T13:41:12.865Z,9.00
2023-04-16T13:43:39.795Z,9.00
2023-04-16T13:46:06.970Z,9.00
2023-04-16T13:48:34.072Z,9.00
2023-04-16T13:51:01.153Z,9.10
2023-04-16T13:53:28.203Z,9.10
2023-04-16T13:55:55.201Z,9.10
2023-04-16T13:58:22.357Z,9.00
2023-04-16T14:00:49.977Z,8.90
2023-04-16T14:03:17.394Z,8.90
2023-04-16T14:05:49.921Z,8.90
2023-04-16T14:08:17.030Z,8.90
2023-04-16T14:10:43.993Z,8.90
2023-04-16T14:13:12.377Z,8.90
2023-04-16T14:15:39.629Z,8.90
2023-04-16T14:18:08.039Z,8.90
2023-04-16T14:20:40.114Z,8.90
2023-04-16T14:23:07.485Z,8.80
2023-04-16T14:25:34.490Z,8.90
2023-04-16T14:28:05.798Z,8.80
2023-04-16T14:30:36.071Z,8.90
2023-04-16T14:33:05.880Z,9.00
2023-04-16T14:35:34.180Z,9.00
2023-04-16T14:38:01.572Z,9.10
2023-04-16T14:40:28.663Z,9.10
2023-04-16T14:42:55.626Z,9.00
2023-04-16T14:45:31.190Z,9.00
2023-04-16T14:47:58.170Z,8.80
2023-04-16T14:50:25.366Z,8.80
2023-04-16T14:52:54.917Z,8.70
2023-04-16T14:55:49.673Z,8.60
2023-04-16T14:58:16.645Z,8.60
2023-04-16T15:00:43.918Z,8.60
2023-04-16T15:03:49.730Z,8.60
2023-04-16T15:06:17.436Z,8.60
2023-04-16T15:08:44.494Z,8.50
2023-04-16T15:11:11.592Z,8.40
2023-04-16T15:13:38.555Z,8.40
2023-04-16T15:16:05.998Z,8.40
2023-04-16T15:18:34.149Z,8.40
2023-04-16T15:21:01.145Z,8.40
2023-04-16T15:23:29.079Z,8.40
2023-04-16T15:25:56.037Z,8.40
2023-04-16T15:28:23.393Z,8.40
2023-04-16T15:30:52.308Z,8.30
2023-04-16T15:33:21.537Z,8.30
2023-04-16T15:35:48.514Z,8.30
2023-04-16T15:38:15.579Z,8.40
2023-04-16T15:40:42.572Z,8.40
2023-04-16T15:43:09.583Z,8.50
2023-04-16T15:45:36.643Z,8.50
2023-04-16T15:48:05.513Z,8.50
2023-04-16T15:50:33.224Z,8.50
2023-04-16T15:53:00.127Z,8.50
2023-04-16T15:55:31.142Z,8.50
2023-04-16T15:57:58.070Z,8.50
2023-04-16T16:00:25.101Z,8.60
2023-04-16T16:02:52.271Z,8.60
2023-04-16T16:05:19.544Z,8.60
2023-04-16T16:07:46.904Z,8.70
2023-04-16T16:10:14.900Z,8.70
2023-04-16T16:12:42.046Z,8.70
2023-04-16T16:15:11.382Z,8.60
2023-04-16T16:17:38.998Z,8.60
2023-04-16T16:20:10.529Z,8.60
2023-04-16T16:22:38.393Z,8.50
2023-04-16T16:25:06.095Z,8.50
2023-04-16T16:27:33.061Z,8.40
2023-04-16T16:30:01.155Z,8.40
2023-04-16T16:32:28.101Z,8.40
2023-04-16T16:34:55.024Z,8.40
2023-04-16T16:37:21.945Z,8.30
2023-04-16T16:39:48.843Z,8.30
2023-04-16T16:42:18.801Z,8.20
2023-04-16T16:44:47.493Z,8.10
2023-04-16T16:47:14.536Z,8.10
2023-04-16T16:49:41.486Z,8.10
2023-04-16T16:52:08.441Z,8.00
2023-04-16T16:54:35.449Z,8.00
2023-04-16T16:57:04.992Z,8.00
2023-04-16T16:59:31.948Z,8.00
2023-04-16T17:01:58.879Z,8.00
2023-04-16T17:04:25.820Z,8.00
2023-04-16T17:06:57.181Z,7.90
2023-04-16T17:09:24.134Z,8.00
2023-04-16T17:11:51.132Z,7.90
2023-04-16T17:14:18.178Z,7.90
2023-04-16T17:16:49.833Z,7.90
2023-04-16T17:19:17.966Z,7.90
2023-04-16T17:21:44.864Z,7.90
2023-04-16T17:24:11.984Z,7.90
2023-04-16T17:26:40.980Z,7.90
2023-04-16T17:29:07.960Z,7.90
2023-04-16T17:31:34.954Z,8.00
2023-04-16T17:34:04.885Z,8.00
2023-04-16T17:36:32.254Z,7.90
2023-04-16T17:38:59.387Z,7.90
2023-04-16T17:41:26.272Z,7.80
2023-04-16T17:43:56.177Z,7.80
2023-04-16T17:46:23.257Z,7.80
2023-04-16T17:48:50.276Z,7.70
2023-04-16T17:51:17.246Z,7.70
2023-04-16T17:53:44.796Z,7.70
2023-04-16T17:56:12.585Z,7.70
2023-04-16T17:58:39.550Z,7.70
2023-04-16T18:01:07.508Z,7.70
2023-04-16T18:03:34.947Z,7.70
2023-04-16T18:06:02.087Z,7.70
2023-04-16T18:08:29.461Z,7.70
2023-04-16T18:10:56.965Z,7.70
2023-04-16T18:13:24.758Z,7.70
2023-04-16T18:15:53.030Z,7.70
2023-04-16T18:18:21.352Z,7.70
2023-04-16T18:20:48.427Z,7.80
2023-04-16T18:23:15.367Z,7.80
2023-04-16T18:25:42.404Z,7.70
2023-04-16T18:28:09.634Z,7.70
2023-04-16T18:30:39.912Z,7.70
2023-04-16T18:33:37.309Z,7.60
2023-04-16T18:35:54.471Z,7.60
2023-04-16T18:38:21.552Z,7.50
2023-04-16T18:40:51.067Z,7.50
2023-04-16T18:43:18.197Z,7.50
2023-04-16T18:45:45.394Z,7.50
2023-04-16T18:48:12.747Z,7.50
2023-04-16T18:50:39.848Z,7.50
2023-04-16T18:53:07.509Z,7.50
2023-04-16T18:55:34.718Z,7.50
2023-04-16T18:58:02.018Z,7.50
2023-04-16T19:00:31.177Z,7.60
2023-04-16T19:02:58.639Z,7.60
2023-04-16T19:05:27.042Z,7.50
2023-04-16T19:07:55.790Z,7.50
2023-04-16T19:10:23.056Z,7.50
2023-04-16T19:12:50.123Z,7.50
2023-04-16T19:15:20.300Z,7.50
2023-04-16T19:17:47.979Z,7.40
2023-04-16T19:20:15.481Z,7.40
2023-04-16T19:22:47.653Z,7.40
2023-04-16T19:25:14.828Z,7.40
2023-04-16T19:27:41.998Z,7.40
2023-04-16T19:30:10.038Z,7.40
2023-04-16T19:32:37.114Z,7.40
2023-04-16T19:35:09.314Z,7.30
2023-04-16T19:37:37.417Z,7.30
2023-04-16T19:40:06.271Z,7.30
2023-04-16T19:42:34.878Z,7.30
2023-04-16T19:45:03.660Z,7.30
2023-04-16T19:47:31.974Z,7.20
2023-04-16T19:49:59.208Z,7.20
2023-04-16T19:52:26.452Z,7.20
2023-04-16T19:54:53.427Z,7.20
2023-04-16T19:57:20.886Z,7.10
2023-04-16T19:59:47.911Z,7.10
2023-04-16T20:02:15.236Z,7.10
2023-04-16T20:04:42.534Z,7.10
2023-04-16T20:07:09.701Z,7.10
2023-04-16T20:09:36.869Z,7.20
2023-04-16T20:12:04.243Z,7.10
2023-04-16T20:14:31.237Z,7.20
2023-04-16T20:16:58.280Z,7.20
2023-04-16T20:19:30.080Z,7.20
2023-04-16T20:21:57.057Z,7.20
2023-04-16T20:24:24.263Z,7.10
2023-04-16T20:26:51.227Z,7.10
2023-04-16T20:29:18.204Z,7.10
2023-04-16T20:31:46.233Z,7.10
2023-04-16T20:34:13.278Z,7.10
2023-04-16T20:36:40.635Z,7.00
2023-04-16T20:39:08.210Z,7.00
2023-04-16T20:41:35.328Z,7.10
2023-04-16T20:44:05.397Z,7.10
2023-04-16T20:46:34.349Z,7.10
2023-04-16T20:49:01.342Z,7.10
2023-04-16T20:51:28.845Z,7.10
2023-04-16T20:53:55.896Z,7.10
2023-04-16T20:56:22.855Z,7.10
2023-04-16T20:58:49.901Z,7.10
2023-04-16T21:01:47.759Z,7.10
2023-04-16T21:04:14.965Z,7.10
2023-04-16T21:06:43.108Z,7.20
2023-04-16T21:09:10.950Z,7.20
2023-04-16T21:11:38.460Z,7.20
2023-04-16T21:14:06.116Z,7.20
2023-04-16T21:16:33.167Z,7.20
2023-04-16T21:19:00.237Z,7.20
2023-04-16T21:21:27.608Z,7.20
2023-04-16T21:23:54.595Z,7.20
2023-04-16T21:26:21.954Z,7.20
2023-04-16T21:28:49.248Z,7.20
2023-04-16T21:31:16.511Z,7.20
2023-04-16T21:33:44.170Z,7.20
2023-04-16T21:36:11.943Z,7.10
2023-04-16T21:38:38.929Z,7.10
2023-04-16T21:41:05.996Z,7.10
2023-04-16T21:43:33.082Z,7.10
2023-04-16T21:46:00.316Z,7.20
2023-04-16T21:48:28.583Z,7.20
2023-04-16T21:50:59.939Z,7.20
2023-04-16T21:53:28.215Z,7.20
2023-04-16T21:55:55.168Z,7.20
2023-04-16T21:58:22.174Z,7.20
2023-04-16T22:00:49.166Z,7.20
2023-04-16T22:03:17.455Z,7.20
2023-04-16T22:05:45.969Z,7.20
2023-04-16T22:08:24.047Z,7.10
2023-04-16T22:10:51.758Z,7.10
2023-04-16T22:13:18.755Z,7.10
2023-04-16T22:15:46.164Z,7.20
2023-04-16T22:18:13.105Z,7.20
2023-04-16T22:20:40.015Z,7.10
2023-04-16T22:23:07.278Z,7.10
2023-04-16T22:25:34.257Z,7.20
2023-04-16T22:28:01.821Z,7.10
2023-04-16T22:30:28.847Z,7.10
2023-04-16T22:32:56.048Z,7.10
2023-04-16T22:35:23.117Z,7.10
2023-04-16T22:37:50.170Z,7.10
2023-04-16T22:40:17.225Z,7.20
2023-04-16T22:42:44.301Z,7.20
2023-04-16T22:45:11.700Z,7.20
2023-04-16T22:47:39.751Z,7.20
2023-04-16T22:50:07.508Z,7.20
2023-04-16T22:52:34.480Z,7.20
2023-04-16T22:55:01.416Z,7.20
2023-04-16T22:57:28.366Z,7.10
2023-04-16T22:59:56.388Z,7.10
2023-04-16T23:02:23.472Z,7.10
2023-04-16T23:04:50.497Z,7.10
2023-04-16T23:07:17.494Z,7.10
2023-04-16T23:09:44.497Z,7.10
2023-04-16T23:12:17.564Z,7.10
2023-04-16T23:14:46.143Z,7.10
2023-04-16T23:17:13.918Z,7.10
2023-04-16T23:19:41.069Z,7.00
2023-04-16T23:22:08.047Z,7.00
2023-04-16T23:24:34.990Z,7.00
2023-04-16T23:27:02.824Z,7.00
2023-04-16T23:29:29.889Z,7.00
2023-04-16T23:31:58.466Z,7.00
2023-04-16T23:34:25.872Z,7.00
2023-04-16T23:36:52.789Z,7.00
2023-04-16T23:39:19.849Z,7.00
2023-04-16T23:41:46.884Z,7.00
2023-04-16T23:44:13.822Z,6.90
2023-04-16T23:46:41.044Z,6.90
2023-04-16T23:49:08.242Z,6.90
2023-04-16T23:51:35.461Z,6.90
2023-04-16T23:54:02.574Z,6.90
2023-04-16T23:56:30.156Z,6.90
2023-04-16T23:58:57.185Z,6.90
